sensor_id;sensor_type;location;lat;lon;timestamp;P1;durP1;ratioP1;P2;durP2;ratioP2
66437;SDS011;54537;47.972;11.662;2022-10-17T00:02:23;6.57;;;3.10;;
66437;SDS011;54537;47.972;11.662;2022-10-17T00:04:49;6.70;;;2.60;;
66437;SDS011;54537;47.972;11.662;2022-10-17T00:07:17;6.55;;;3.10;;
66437;SDS011;54537;47.972;11.662;2022-10-17T00:09:43;7.33;;;3.20;;
66437;SDS011;54537;47.972;11.662;2022-10-17T00:12:10;9.82;;;3.80;;
66437;SDS011;54537;47.972;11.662;2022-10-17T00:14:36;7.97;;;3.95;;
66437;SDS011;54537;47.972;11.662;2022-10-17T00:17:03;7.55;;;3.50;;
66437;SDS011;54537;47.972;11.662;2022-10-17T00:19:29;9.17;;;3.30;;
66437;SDS011;54537;47.972;11.662;2022-10-17T00:21:55;10.88;;;3.40;;
66437;SDS011;54537;47.972;11.662;2022-10-17T00:24:23;6.60;;;3.08;;
66437;SDS011;54537;47.972;11.662;2022-10-17T00:26:49;5.63;;;2.60;;
66437;SDS011;54537;47.972;11.662;2022-10-17T00:29:16;6.72;;;2.75;;
66437;SDS011;54537;47.972;11.662;2022-10-17T00:31:42;7.13;;;3.10;;
66437;SDS011;54537;47.972;11.662;2022-10-17T00:34:08;5.60;;;2.97;;
66437;SDS011;54537;47.972;11.662;2022-10-17T00:36:35;6.53;;;2.80;;
66437;SDS011;54537;47.972;11.662;2022-10-17T00:39:02;7.15;;;2.42;;
66437;SDS011;54537;47.972;11.662;2022-10-17T00:41:31;8.18;;;2.42;;
66437;SDS011;54537;47.972;11.662;2022-10-17T00:43:58;6.50;;;2.80;;
66437;SDS011;54537;47.972;11.662;2022-10-17T00:46:26;8.05;;;2.80;;
66437;SDS011;54537;47.972;11.662;2022-10-17T00:48:53;6.47;;;2.60;;
66437;SDS011;54537;47.972;11.662;2022-10-17T00:51:22;6.15;;;2.63;;
66437;SDS011;54537;47.972;11.662;2022-10-17T00:53:50;5.85;;;2.40;;
66437;SDS011;54537;47.972;11.662;2022-10-17T00:56:17;6.57;;;2.15;;
66437;SDS011;54537;47.972;11.662;2022-10-17T00:58:45;5.35;;;2.30;;
66437;SDS011;54537;47.972;11.662;2022-10-17T01:01:11;8.77;;;2.33;;
66437;SDS011;54537;47.972;11.662;2022-10-17T01:03:38;4.95;;;2.25;;
66437;SDS011;54537;47.972;11.662;2022-10-17T01:06:04;7.95;;;2.33;;
66437;SDS011;54537;47.972;11.662;2022-10-17T01:08:30;7.25;;;2.28;;
66437;SDS011;54537;47.972;11.662;2022-10-17T01:10:59;6.15;;;2.22;;
66437;SDS011;54537;47.972;11.662;2022-10-17T01:13:29;5.22;;;2.25;;
66437;SDS011;54537;47.972;11.662;2022-10-17T01:16:02;4.43;;;2.30;;
66437;SDS011;54537;47.972;11.662;2022-10-17T01:18:37;5.22;;;2.38;;
66437;SDS011;54537;47.972;11.662;2022-10-17T01:21:07;7.80;;;2.33;;
66437;SDS011;54537;47.972;11.662;2022-10-17T01:23:45;6.88;;;2.60;;
66437;SDS011;54537;47.972;11.662;2022-10-17T01:26:22;6.75;;;2.28;;
66437;SDS011;54537;47.972;11.662;2022-10-17T01:28:59;6.10;;;2.28;;
66437;SDS011;54537;47.972;11.662;2022-10-17T01:31:29;6.47;;;2.50;;
66437;SDS011;54537;47.972;11.662;2022-10-17T01:33:58;7.63;;;2.42;;
66437;SDS011;54537;47.972;11.662;2022-10-17T01:36:27;6.68;;;2.70;;
66437;SDS011;54537;47.972;11.662;2022-10-17T01:38:57;5.35;;;2.35;;
66437;SDS011;54537;47.972;11.662;2022-10-17T01:41:26;6.67;;;2.40;;
66437;SDS011;54537;47.972;11.662;2022-10-17T01:43:56;7.30;;;2.50;;
66437;SDS011;54537;47.972;11.662;2022-10-17T01:46:25;5.00;;;2.10;;
66437;SDS011;54537;47.972;11.662;2022-10-17T01:48:56;6.57;;;2.53;;
66437;SDS011;54537;47.972;11.662;2022-10-17T01:51:25;6.00;;;2.40;;
66437;SDS011;54537;47.972;11.662;2022-10-17T01:53:54;5.75;;;2.50;;
66437;SDS011;54537;47.972;11.662;2022-10-17T01:56:23;6.03;;;2.30;;
66437;SDS011;54537;47.972;11.662;2022-10-17T01:58:51;7.07;;;2.60;;
66437;SDS011;54537;47.972;11.662;2022-10-17T02:01:18;6.27;;;2.50;;
66437;SDS011;54537;47.972;11.662;2022-10-17T02:03:46;5.30;;;2.00;;
66437;SDS011;54537;47.972;11.662;2022-10-17T02:06:15;4.47;;;2.45;;
66437;SDS011;54537;47.972;11.662;2022-10-17T02:08:41;6.43;;;1.77;;
66437;SDS011;54537;47.972;11.662;2022-10-17T02:11:09;6.13;;;2.17;;
66437;SDS011;54537;47.972;11.662;2022-10-17T02:30:42;7.15;;;1.85;;
66437;SDS011;54537;47.972;11.662;2022-10-17T02:33:12;6.75;;;2.92;;
66437;SDS011;54537;47.972;11.662;2022-10-17T02:52:45;6.20;;;1.85;;
66437;SDS011;54537;47.972;11.662;2022-10-17T03:02:37;5.47;;;2.17;;
66437;SDS011;54537;47.972;11.662;2022-10-17T03:05:04;7.55;;;2.80;;
66437;SDS011;54537;47.972;11.662;2022-10-17T03:07:30;7.50;;;3.05;;
66437;SDS011;54537;47.972;11.662;2022-10-17T03:09:58;8.70;;;3.30;;
66437;SDS011;54537;47.972;11.662;2022-10-17T03:12:24;11.80;;;4.75;;
66437;SDS011;54537;47.972;11.662;2022-10-17T03:14:50;7.30;;;3.53;;
66437;SDS011;54537;47.972;11.662;2022-10-17T03:17:17;8.15;;;3.25;;
66437;SDS011;54537;47.972;11.662;2022-10-17T03:19:43;11.10;;;4.38;;
66437;SDS011;54537;47.972;11.662;2022-10-17T03:22:09;9.32;;;3.78;;
66437;SDS011;54537;47.972;11.662;2022-10-17T03:24:36;9.10;;;2.90;;
66437;SDS011;54537;47.972;11.662;2022-10-17T03:27:03;5.72;;;2.40;;
66437;SDS011;54537;47.972;11.662;2022-10-17T03:29:30;10.88;;;2.70;;
66437;SDS011;54537;47.972;11.662;2022-10-17T03:31:56;8.95;;;2.85;;
66437;SDS011;54537;47.972;11.662;2022-10-17T03:34:23;8.38;;;3.72;;
66437;SDS011;54537;47.972;11.662;2022-10-17T03:36:49;6.88;;;3.20;;
66437;SDS011;54537;47.972;11.662;2022-10-17T03:39:16;7.78;;;3.20;;
66437;SDS011;54537;47.972;11.662;2022-10-17T03:41:42;5.18;;;2.92;;
66437;SDS011;54537;47.972;11.662;2022-10-17T03:44:10;9.63;;;3.10;;
66437;SDS011;54537;47.972;11.662;2022-10-17T03:46:36;4.93;;;2.90;;
66437;SDS011;54537;47.972;11.662;2022-10-17T03:49:03;8.68;;;3.10;;
66437;SDS011;54537;47.972;11.662;2022-10-17T03:51:29;5.85;;;3.00;;
66437;SDS011;54537;47.972;11.662;2022-10-17T03:53:55;7.47;;;3.70;;
66437;SDS011;54537;47.972;11.662;2022-10-17T03:56:22;9.73;;;4.80;;
66437;SDS011;54537;47.972;11.662;2022-10-17T03:58:49;8.70;;;4.20;;
66437;SDS011;54537;47.972;11.662;2022-10-17T04:01:17;7.90;;;3.78;;
66437;SDS011;54537;47.972;11.662;2022-10-17T04:03:43;5.20;;;2.15;;
66437;SDS011;54537;47.972;11.662;2022-10-17T04:35:25;8.75;;;2.55;;
66437;SDS011;54537;47.972;11.662;2022-10-17T04:37:52;7.05;;;2.78;;
66437;SDS011;54537;47.972;11.662;2022-10-17T04:40:18;11.30;;;3.15;;
66437;SDS011;54537;47.972;11.662;2022-10-17T04:42:45;7.57;;;2.90;;
66437;SDS011;54537;47.972;11.662;2022-10-17T04:52:32;7.28;;;2.15;;
66437;SDS011;54537;47.972;11.662;2022-10-17T04:55:01;9.30;;;2.97;;
66437;SDS011;54537;47.972;11.662;2022-10-17T04:57:27;8.80;;;3.40;;
66437;SDS011;54537;47.972;11.662;2022-10-17T04:59:54;7.93;;;3.90;;
66437;SDS011;54537;47.972;11.662;2022-10-17T05:02:20;10.95;;;4.15;;
66437;SDS011;54537;47.972;11.662;2022-10-17T05:04:47;9.57;;;4.32;;
66437;SDS011;54537;47.972;11.662;2022-10-17T05:07:13;10.82;;;4.30;;
66437;SDS011;54537;47.972;11.662;2022-10-17T05:09:41;8.93;;;4.07;;
66437;SDS011;54537;47.972;11.662;2022-10-17T05:12:07;9.55;;;3.90;;
66437;SDS011;54537;47.972;11.662;2022-10-17T05:14:34;9.82;;;3.67;;
66437;SDS011;54537;47.972;11.662;2022-10-17T05:17:00;10.05;;;3.28;;
66437;SDS011;54537;47.972;11.662;2022-10-17T05:19:26;8.88;;;3.20;;
66437;SDS011;54537;47.972;11.662;2022-10-17T05:21:53;8.70;;;3.60;;
66437;SDS011;54537;47.972;11.662;2022-10-17T05:24:19;9.73;;;3.83;;
66437;SDS011;54537;47.972;11.662;2022-10-17T05:26:47;9.07;;;3.90;;
66437;SDS011;54537;47.972;11.662;2022-10-17T05:29:14;9.40;;;3.90;;
66437;SDS011;54537;47.972;11.662;2022-10-17T05:31:41;9.95;;;3.97;;
66437;SDS011;54537;47.972;11.662;2022-10-17T05:34:07;10.63;;;3.83;;
66437;SDS011;54537;47.972;11.662;2022-10-17T05:36:33;9.40;;;4.05;;
66437;SDS011;54537;47.972;11.662;2022-10-17T05:39:00;10.68;;;4.20;;
66437;SDS011;54537;47.972;11.662;2022-10-17T05:41:26;9.90;;;4.20;;
66437;SDS011;54537;47.972;11.662;2022-10-17T05:43:54;13.45;;;4.18;;
66437;SDS011;54537;47.972;11.662;2022-10-17T05:46:20;9.10;;;3.73;;
66437;SDS011;54537;47.972;11.662;2022-10-17T05:48:46;11.20;;;4.57;;
66437;SDS011;54537;47.972;11.662;2022-10-17T05:51:13;13.43;;;4.75;;
66437;SDS011;54537;47.972;11.662;2022-10-17T05:53:39;10.10;;;4.82;;
66437;SDS011;54537;47.972;11.662;2022-10-17T05:56:06;10.70;;;4.60;;
66437;SDS011;54537;47.972;11.662;2022-10-17T05:58:33;9.70;;;4.13;;
66437;SDS011;54537;47.972;11.662;2022-10-17T06:01:02;10.10;;;4.10;;
66437;SDS011;54537;47.972;11.662;2022-10-17T06:03:29;7.80;;;3.90;;
66437;SDS011;54537;47.972;11.662;2022-10-17T06:05:55;8.25;;;3.67;;
66437;SDS011;54537;47.972;11.662;2022-10-17T06:08:21;10.68;;;3.50;;
66437;SDS011;54537;47.972;11.662;2022-10-17T06:10:48;12.90;;;3.92;;
66437;SDS011;54537;47.972;11.662;2022-10-17T06:13:15;10.18;;;4.22;;
66437;SDS011;54537;47.972;11.662;2022-10-17T06:15:41;10.35;;;4.05;;
66437;SDS011;54537;47.972;11.662;2022-10-17T06:18:09;11.23;;;4.80;;
66437;SDS011;54537;47.972;11.662;2022-10-17T06:20:35;10.15;;;3.70;;
66437;SDS011;54537;47.972;11.662;2022-10-17T06:23:02;8.98;;;3.28;;
66437;SDS011;54537;47.972;11.662;2022-10-17T07:02:03;11.05;;;2.83;;
66437;SDS011;54537;47.972;11.662;2022-10-17T07:04:30;6.22;;;2.83;;
66437;SDS011;54537;47.972;11.662;2022-10-17T07:06:57;10.73;;;3.00;;
66437;SDS011;54537;47.972;11.662;2022-10-17T07:09:23;9.70;;;2.90;;
66437;SDS011;54537;47.972;11.662;2022-10-17T07:11:50;8.18;;;2.67;;
66437;SDS011;54537;47.972;11.662;2022-10-17T07:14:17;7.80;;;2.60;;
66437;SDS011;54537;47.972;11.662;2022-10-17T07:16:43;5.13;;;2.53;;
66437;SDS011;54537;47.972;11.662;2022-10-17T07:19:11;6.32;;;2.90;;
66437;SDS011;54537;47.972;11.662;2022-10-17T07:21:37;5.82;;;2.55;;
66437;SDS011;54537;47.972;11.662;2022-10-17T07:28:57;5.97;;;2.70;;
66437;SDS011;54537;47.972;11.662;2022-10-17T07:31:24;9.68;;;4.35;;
66437;SDS011;54537;47.972;11.662;2022-10-17T07:33:50;11.38;;;4.78;;
66437;SDS011;54537;47.972;11.662;2022-10-17T07:36:18;10.45;;;4.88;;
66437;SDS011;54537;47.972;11.662;2022-10-17T07:38:44;14.93;;;6.23;;
66437;SDS011;54537;47.972;11.662;2022-10-17T07:41:11;13.70;;;4.70;;
66437;SDS011;54537;47.972;11.662;2022-10-17T07:43:37;10.77;;;5.00;;
66437;SDS011;54537;47.972;11.662;2022-10-17T07:46:06;12.57;;;5.60;;
66437;SDS011;54537;47.972;11.662;2022-10-17T07:48:32;14.38;;;4.35;;
66437;SDS011;54537;47.972;11.662;2022-10-17T07:51:00;7.18;;;3.13;;
66437;SDS011;54537;47.972;11.662;2022-10-17T07:53:28;9.47;;;3.90;;
66437;SDS011;54537;47.972;11.662;2022-10-17T07:55:54;8.68;;;3.53;;
66437;SDS011;54537;47.972;11.662;2022-10-17T07:58:20;5.70;;;3.20;;
66437;SDS011;54537;47.972;11.662;2022-10-17T08:00:47;5.88;;;3.20;;
66437;SDS011;54537;47.972;11.662;2022-10-17T08:03:14;6.57;;;3.20;;
66437;SDS011;54537;47.972;11.662;2022-10-17T08:05:41;5.07;;;2.92;;
66437;SDS011;54537;47.972;11.662;2022-10-17T08:08:07;5.65;;;3.03;;
66437;SDS011;54537;47.972;11.662;2022-10-17T08:10:35;6.30;;;3.10;;
66437;SDS011;54537;47.972;11.662;2022-10-17T08:13:02;6.75;;;3.17;;
66437;SDS011;54537;47.972;11.662;2022-10-17T08:15:28;5.95;;;3.15;;
66437;SDS011;54537;47.972;11.662;2022-10-17T08:17:55;5.72;;;3.00;;
66437;SDS011;54537;47.972;11.662;2022-10-17T08:20:21;6.95;;;3.20;;
66437;SDS011;54537;47.972;11.662;2022-10-17T08:22:51;8.48;;;2.80;;
66437;SDS011;54537;47.972;11.662;2022-10-17T08:25:17;6.43;;;3.10;;
66437;SDS011;54537;47.972;11.662;2022-10-17T08:27:45;4.75;;;2.80;;
66437;SDS011;54537;47.972;11.662;2022-10-17T08:30:11;5.25;;;3.05;;
66437;SDS011;54537;47.972;11.662;2022-10-17T08:32:38;5.65;;;2.90;;
66437;SDS011;54537;47.972;11.662;2022-10-17T08:35:05;5.43;;;3.10;;
66437;SDS011;54537;47.972;11.662;2022-10-17T08:37:31;7.27;;;2.90;;
66437;SDS011;54537;47.972;11.662;2022-10-17T08:39:57;5.75;;;2.80;;
66437;SDS011;54537;47.972;11.662;2022-10-17T08:42:28;4.90;;;2.72;;
66437;SDS011;54537;47.972;11.662;2022-10-17T08:44:58;4.35;;;2.50;;
66437;SDS011;54537;47.972;11.662;2022-10-17T08:47:33;4.00;;;2.75;;
66437;SDS011;54537;47.972;11.662;2022-10-17T08:50:00;4.40;;;2.80;;
66437;SDS011;54537;47.972;11.662;2022-10-17T08:52:28;7.20;;;3.00;;
66437;SDS011;54537;47.972;11.662;2022-10-17T08:54:57;8.48;;;3.00;;
66437;SDS011;54537;47.972;11.662;2022-10-17T08:57:23;4.55;;;2.85;;
66437;SDS011;54537;47.972;11.662;2022-10-17T08:59:50;4.65;;;2.53;;
66437;SDS011;54537;47.972;11.662;2022-10-17T09:02:24;3.95;;;2.60;;
66437;SDS011;54537;47.972;11.662;2022-10-17T09:05:02;4.22;;;2.20;;
66437;SDS011;54537;47.972;11.662;2022-10-17T09:07:35;3.63;;;2.45;;
66437;SDS011;54537;47.972;11.662;2022-10-17T09:10:06;3.22;;;2.30;;
66437;SDS011;54537;47.972;11.662;2022-10-17T09:12:36;3.50;;;2.08;;
66437;SDS011;54537;47.972;11.662;2022-10-17T09:15:13;4.43;;;2.40;;
66437;SDS011;54537;47.972;11.662;2022-10-17T09:17:46;4.53;;;2.25;;
66437;SDS011;54537;47.972;11.662;2022-10-17T09:20:17;4.63;;;2.30;;
66437;SDS011;54537;47.972;11.662;2022-10-17T09:22:45;3.75;;;2.30;;
66437;SDS011;54537;47.972;11.662;2022-10-17T09:25:13;3.83;;;2.13;;
66437;SDS011;54537;47.972;11.662;2022-10-17T09:27:41;3.60;;;2.20;;
66437;SDS011;54537;47.972;11.662;2022-10-17T09:32:57;4.10;;;2.20;;
66437;SDS011;54537;47.972;11.662;2022-10-17T09:35:24;4.15;;;2.00;;
66437;SDS011;54537;47.972;11.662;2022-10-17T09:37:50;3.73;;;2.20;;
66437;SDS011;54537;47.972;11.662;2022-10-17T09:40:18;4.22;;;2.13;;
66437;SDS011;54537;47.972;11.662;2022-10-17T09:42:46;2.75;;;2.15;;
66437;SDS011;54537;47.972;11.662;2022-10-17T09:45:15;4.72;;;2.38;;
66437;SDS011;54537;47.972;11.662;2022-10-17T09:47:44;3.88;;;2.33;;
66437;SDS011;54537;47.972;11.662;2022-10-17T09:50:14;4.23;;;2.47;;
66437;SDS011;54537;47.972;11.662;2022-10-17T09:52:42;4.53;;;2.38;;
66437;SDS011;54537;47.972;11.662;2022-10-17T09:55:14;3.97;;;2.20;;
66437;SDS011;54537;47.972;11.662;2022-10-17T09:57:53;3.83;;;2.35;;
66437;SDS011;54537;47.972;11.662;2022-10-17T10:00:20;4.18;;;2.47;;
66437;SDS011;54537;47.972;11.662;2022-10-17T10:02:46;2.83;;;2.40;;
66437;SDS011;54537;47.972;11.662;2022-10-17T10:05:15;4.40;;;2.30;;
66437;SDS011;54537;47.972;11.662;2022-10-17T10:07:43;4.18;;;2.10;;
66437;SDS011;54537;47.972;11.662;2022-10-17T10:10:21;4.10;;;2.28;;
66437;SDS011;54537;47.972;11.662;2022-10-17T10:13:00;4.07;;;2.20;;
66437;SDS011;54537;47.972;11.662;2022-10-17T10:15:31;4.18;;;2.30;;
66437;SDS011;54537;47.972;11.662;2022-10-17T10:17:58;3.15;;;2.20;;
66437;SDS011;54537;47.972;11.662;2022-10-17T10:20:31;4.03;;;2.17;;
66437;SDS011;54537;47.972;11.662;2022-10-17T10:23:04;4.38;;;2.20;;
66437;SDS011;54537;47.972;11.662;2022-10-17T10:25:31;3.27;;;2.37;;
66437;SDS011;54537;47.972;11.662;2022-10-17T10:27:57;3.95;;;2.38;;
66437;SDS011;54537;47.972;11.662;2022-10-17T10:30:24;7.32;;;2.38;;
66437;SDS011;54537;47.972;11.662;2022-10-17T10:32:52;3.17;;;2.20;;
66437;SDS011;54537;47.972;11.662;2022-10-17T10:35:19;5.00;;;2.40;;
66437;SDS011;54537;47.972;11.662;2022-10-17T10:37:48;4.43;;;2.30;;
66437;SDS011;54537;47.972;11.662;2022-10-17T10:40:16;4.90;;;2.10;;
66437;SDS011;54537;47.972;11.662;2022-10-17T10:42:45;3.15;;;2.10;;
66437;SDS011;54537;47.972;11.662;2022-10-17T10:45:14;4.45;;;2.20;;
66437;SDS011;54537;47.972;11.662;2022-10-17T10:47:47;3.75;;;2.50;;
66437;SDS011;54537;47.972;11.662;2022-10-17T10:50:22;4.75;;;2.47;;
66437;SDS011;54537;47.972;11.662;2022-10-17T10:52:51;3.33;;;2.40;;
66437;SDS011;54537;47.972;11.662;2022-10-17T10:55:22;3.28;;;2.20;;
66437;SDS011;54537;47.972;11.662;2022-10-17T10:57:51;3.45;;;2.00;;
66437;SDS011;54537;47.972;11.662;2022-10-17T11:00:19;3.85;;;1.90;;
66437;SDS011;54537;47.972;11.662;2022-10-17T11:02:48;3.67;;;2.05;;
66437;SDS011;54537;47.972;11.662;2022-10-17T11:05:19;3.17;;;2.10;;
66437;SDS011;54537;47.972;11.662;2022-10-17T11:07:49;3.95;;;1.90;;
66437;SDS011;54537;47.972;11.662;2022-10-17T11:10:20;4.30;;;1.90;;
66437;SDS011;54537;47.972;11.662;2022-10-17T11:12:49;3.50;;;2.10;;
66437;SDS011;54537;47.972;11.662;2022-10-17T11:15:19;3.38;;;1.85;;
66437;SDS011;54537;47.972;11.662;2022-10-17T11:17:49;4.43;;;1.98;;
66437;SDS011;54537;47.972;11.662;2022-10-17T11:20:19;4.93;;;2.10;;
66437;SDS011;54537;47.972;11.662;2022-10-17T11:22:47;2.70;;;1.90;;
66437;SDS011;54537;47.972;11.662;2022-10-17T11:25:18;3.15;;;1.90;;
66437;SDS011;54537;47.972;11.662;2022-10-17T11:27:46;3.80;;;2.10;;
66437;SDS011;54537;47.972;11.662;2022-10-17T11:30:12;3.70;;;2.10;;
66437;SDS011;54537;47.972;11.662;2022-10-17T11:32:39;3.75;;;1.85;;
66437;SDS011;54537;47.972;11.662;2022-10-17T11:35:17;4.20;;;2.00;;
66437;SDS011;54537;47.972;11.662;2022-10-17T11:37:45;3.80;;;2.27;;
66437;SDS011;54537;47.972;11.662;2022-10-17T11:40:15;5.00;;;2.10;;
66437;SDS011;54537;47.972;11.662;2022-10-17T11:42:45;4.65;;;2.33;;
66437;SDS011;54537;47.972;11.662;2022-10-17T11:45:20;4.45;;;2.00;;
66437;SDS011;54537;47.972;11.662;2022-10-17T11:47:48;7.00;;;2.13;;
66437;SDS011;54537;47.972;11.662;2022-10-17T11:50:18;5.57;;;2.30;;
66437;SDS011;54537;47.972;11.662;2022-10-17T11:52:45;4.32;;;1.92;;
66437;SDS011;54537;47.972;11.662;2022-10-17T11:55:16;3.28;;;2.00;;
66437;SDS011;54537;47.972;11.662;2022-10-17T11:57:48;5.32;;;2.00;;
66437;SDS011;54537;47.972;11.662;2022-10-17T12:00:21;3.83;;;2.03;;
66437;SDS011;54537;47.972;11.662;2022-10-17T12:02:50;3.80;;;2.00;;
66437;SDS011;54537;47.972;11.662;2022-10-17T12:05:20;3.60;;;1.88;;
66437;SDS011;54537;47.972;11.662;2022-10-17T12:07:49;4.03;;;1.90;;
66437;SDS011;54537;47.972;11.662;2022-10-17T12:10:21;2.13;;;1.63;;
66437;SDS011;54537;47.972;11.662;2022-10-17T12:12:50;2.93;;;1.80;;
66437;SDS011;54537;47.972;11.662;2022-10-17T12:15:27;3.33;;;1.90;;
66437;SDS011;54537;47.972;11.662;2022-10-17T12:17:53;3.05;;;1.70;;
66437;SDS011;54537;47.972;11.662;2022-10-17T12:20:27;3.15;;;1.70;;
66437;SDS011;54537;47.972;11.662;2022-10-17T12:25:21;4.93;;;1.70;;
66437;SDS011;54537;47.972;11.662;2022-10-17T12:27:48;4.13;;;1.73;;
66437;SDS011;54537;47.972;11.662;2022-10-17T12:30:17;2.55;;;1.52;;
66437;SDS011;54537;47.972;11.662;2022-10-17T12:35:34;2.72;;;1.48;;
66437;SDS011;54537;47.972;11.662;2022-10-17T12:38:02;5.00;;;2.25;;
66437;SDS011;54537;47.972;11.662;2022-10-17T12:42:54;2.67;;;1.63;;
66437;SDS011;54537;47.972;11.662;2022-10-17T12:47:48;4.15;;;1.50;;
66437;SDS011;54537;47.972;11.662;2022-10-17T13:00:33;2.55;;;1.67;;
66437;SDS011;54537;47.972;11.662;2022-10-17T13:03:05;4.93;;;1.50;;
66437;SDS011;54537;47.972;11.662;2022-10-17T13:05:36;3.33;;;1.70;;
66437;SDS011;54537;47.972;11.662;2022-10-17T13:08:04;2.88;;;1.60;;
66437;SDS011;54537;47.972;11.662;2022-10-17T13:10:32;2.60;;;1.70;;
66437;SDS011;54537;47.972;11.662;2022-10-17T13:13:03;2.47;;;1.70;;
66437;SDS011;54537;47.972;11.662;2022-10-17T13:15:30;5.10;;;1.77;;
66437;SDS011;54537;47.972;11.662;2022-10-17T13:17:57;2.97;;;1.52;;
66437;SDS011;54537;47.972;11.662;2022-10-17T13:20:26;4.15;;;1.88;;
66437;SDS011;54537;47.972;11.662;2022-10-17T13:22:53;3.47;;;1.80;;
66437;SDS011;54537;47.972;11.662;2022-10-17T13:25:21;2.10;;;1.55;;
66437;SDS011;54537;47.972;11.662;2022-10-17T13:27:48;3.28;;;1.65;;
66437;SDS011;54537;47.972;11.662;2022-10-17T13:30:22;2.65;;;1.70;;
66437;SDS011;54537;47.972;11.662;2022-10-17T13:32:49;5.05;;;2.13;;
66437;SDS011;54537;47.972;11.662;2022-10-17T13:35:20;2.92;;;1.80;;
66437;SDS011;54537;47.972;11.662;2022-10-17T13:37:48;4.45;;;1.77;;
66437;SDS011;54537;47.972;11.662;2022-10-17T13:40:15;2.75;;;1.52;;
66437;SDS011;54537;47.972;11.662;2022-10-17T13:42:42;5.18;;;2.13;;
66437;SDS011;54537;47.972;11.662;2022-10-17T13:45:12;4.05;;;1.92;;
66437;SDS011;54537;47.972;11.662;2022-10-17T13:47:40;2.63;;;1.90;;
66437;SDS011;54537;47.972;11.662;2022-10-17T13:50:07;4.50;;;2.10;;
66437;SDS011;54537;47.972;11.662;2022-10-17T13:52:39;3.10;;;1.95;;
66437;SDS011;54537;47.972;11.662;2022-10-17T13:55:07;3.47;;;1.70;;
66437;SDS011;54537;47.972;11.662;2022-10-17T13:57:35;4.18;;;2.03;;
66437;SDS011;54537;47.972;11.662;2022-10-17T14:00:03;4.93;;;1.67;;
66437;SDS011;54537;47.972;11.662;2022-10-17T14:02:31;2.10;;;1.70;;
66437;SDS011;54537;47.972;11.662;2022-10-17T14:04:59;3.33;;;1.95;;
66437;SDS011;54537;47.972;11.662;2022-10-17T14:07:26;3.25;;;2.00;;
66437;SDS011;54537;47.972;11.662;2022-10-17T14:09:54;3.15;;;1.75;;
66437;SDS011;54537;47.972;11.662;2022-10-17T14:12:22;3.55;;;1.83;;
66437;SDS011;54537;47.972;11.662;2022-10-17T14:14:49;3.05;;;1.88;;
66437;SDS011;54537;47.972;11.662;2022-10-17T14:17:19;3.65;;;1.95;;
66437;SDS011;54537;47.972;11.662;2022-10-17T14:19:49;2.97;;;1.65;;
66437;SDS011;54537;47.972;11.662;2022-10-17T14:22:17;3.28;;;1.80;;
66437;SDS011;54537;47.972;11.662;2022-10-17T14:24:48;4.05;;;1.88;;
66437;SDS011;54537;47.972;11.662;2022-10-17T14:27:27;4.13;;;2.13;;
66437;SDS011;54537;47.972;11.662;2022-10-17T14:29:55;3.40;;;2.03;;
66437;SDS011;54537;47.972;11.662;2022-10-17T14:32:24;3.78;;;1.98;;
66437;SDS011;54537;47.972;11.662;2022-10-17T14:34:52;2.88;;;1.65;;
66437;SDS011;54537;47.972;11.662;2022-10-17T14:37:23;2.50;;;1.67;;
66437;SDS011;54537;47.972;11.662;2022-10-17T14:42:19;3.42;;;1.67;;
66437;SDS011;54537;47.972;11.662;2022-10-17T14:44:48;3.80;;;2.13;;
66437;SDS011;54537;47.972;11.662;2022-10-17T14:47:16;4.75;;;1.83;;
66437;SDS011;54537;47.972;11.662;2022-10-17T14:49:47;3.83;;;1.90;;
66437;SDS011;54537;47.972;11.662;2022-10-17T14:52:23;4.65;;;2.20;;
66437;SDS011;54537;47.972;11.662;2022-10-17T14:54:50;4.13;;;1.80;;
66437;SDS011;54537;47.972;11.662;2022-10-17T14:57:17;2.85;;;1.75;;
66437;SDS011;54537;47.972;11.662;2022-10-17T14:59:43;3.45;;;1.63;;
66437;SDS011;54537;47.972;11.662;2022-10-17T15:07:03;5.00;;;1.80;;
66437;SDS011;54537;47.972;11.662;2022-10-17T15:09:30;5.45;;;1.80;;
66437;SDS011;54537;47.972;11.662;2022-10-17T15:11:57;3.05;;;1.88;;
66437;SDS011;54537;47.972;11.662;2022-10-17T15:14:25;3.90;;;2.17;;
66437;SDS011;54537;47.972;11.662;2022-10-17T15:16:51;3.83;;;2.20;;
66437;SDS011;54537;47.972;11.662;2022-10-17T15:19:17;4.53;;;2.20;;
66437;SDS011;54537;47.972;11.662;2022-10-17T15:21:44;3.20;;;1.90;;
66437;SDS011;54537;47.972;11.662;2022-10-17T15:24:11;4.30;;;1.90;;
66437;SDS011;54537;47.972;11.662;2022-10-17T15:26:39;2.83;;;1.75;;
66437;SDS011;54537;47.972;11.662;2022-10-17T15:29:05;3.88;;;1.90;;
66437;SDS011;54537;47.972;11.662;2022-10-17T15:31:31;4.90;;;2.20;;
66437;SDS011;54537;47.972;11.662;2022-10-17T15:36:26;4.15;;;2.22;;
66437;SDS011;54537;47.972;11.662;2022-10-17T15:38:53;5.78;;;2.20;;
66437;SDS011;54537;47.972;11.662;2022-10-17T15:43:48;6.72;;;2.78;;
66437;SDS011;54537;47.972;11.662;2022-10-17T15:46:16;7.85;;;3.10;;
66437;SDS011;54537;47.972;11.662;2022-10-17T15:48:42;12.65;;;3.83;;
66437;SDS011;54537;47.972;11.662;2022-10-17T15:51:09;7.63;;;3.20;;
66437;SDS011;54537;47.972;11.662;2022-10-17T15:53:35;25.00;;;3.28;;
66437;SDS011;54537;47.972;11.662;2022-10-17T15:56:02;10.65;;;3.00;;
66437;SDS011;54537;47.972;11.662;2022-10-17T15:58:35;10.90;;;2.53;;
66437;SDS011;54537;47.972;11.662;2022-10-17T16:01:03;4.32;;;2.13;;
66437;SDS011;54537;47.972;11.662;2022-10-17T16:03:30;4.22;;;2.22;;
66437;SDS011;54537;47.972;11.662;2022-10-17T16:05:56;4.65;;;2.33;;
66437;SDS011;54537;47.972;11.662;2022-10-17T16:08:23;6.80;;;2.30;;
66437;SDS011;54537;47.972;11.662;2022-10-17T16:10:49;5.43;;;2.25;;
66437;SDS011;54537;47.972;11.662;2022-10-17T16:13:16;5.05;;;2.50;;
66437;SDS011;54537;47.972;11.662;2022-10-17T16:15:43;4.93;;;2.38;;
66437;SDS011;54537;47.972;11.662;2022-10-17T16:18:11;9.10;;;2.47;;
66437;SDS011;54537;47.972;11.662;2022-10-17T16:20:37;7.85;;;3.67;;
66437;SDS011;54537;47.972;11.662;2022-10-17T16:23:04;13.88;;;4.75;;
66437;SDS011;54537;47.972;11.662;2022-10-17T16:25:31;13.40;;;4.47;;
66437;SDS011;54537;47.972;11.662;2022-10-17T16:27:58;8.77;;;3.80;;
66437;SDS011;54537;47.972;11.662;2022-10-17T16:30:25;10.98;;;3.58;;
66437;SDS011;54537;47.972;11.662;2022-10-17T16:32:52;6.88;;;2.90;;
66437;SDS011;54537;47.972;11.662;2022-10-17T16:35:21;6.65;;;2.95;;
66437;SDS011;54537;47.972;11.662;2022-10-17T16:37:48;9.50;;;2.55;;
66437;SDS011;54537;47.972;11.662;2022-10-17T16:40:15;8.18;;;2.50;;
66437;SDS011;54537;47.972;11.662;2022-10-17T16:42:42;12.23;;;2.13;;
66437;SDS011;54537;47.972;11.662;2022-10-17T16:45:09;11.23;;;2.85;;
66437;SDS011;54537;47.972;11.662;2022-10-17T16:47:40;13.57;;;3.45;;
66437;SDS011;54537;47.972;11.662;2022-10-17T16:50:06;11.70;;;3.28;;
66437;SDS011;54537;47.972;11.662;2022-10-17T16:52:34;13.65;;;3.47;;
66437;SDS011;54537;47.972;11.662;2022-10-17T16:55:00;11.45;;;3.67;;
66437;SDS011;54537;47.972;11.662;2022-10-17T16:57:27;9.48;;;2.95;;
66437;SDS011;54537;47.972;11.662;2022-10-17T16:59:53;11.32;;;3.70;;
66437;SDS011;54537;47.972;11.662;2022-10-17T17:02:19;7.38;;;4.07;;
66437;SDS011;54537;47.972;11.662;2022-10-17T17:04:46;11.50;;;3.50;;
66437;SDS011;54537;47.972;11.662;2022-10-17T17:07:12;8.45;;;3.80;;
66437;SDS011;54537;47.972;11.662;2022-10-17T17:09:40;6.35;;;3.50;;
66437;SDS011;54537;47.972;11.662;2022-10-17T17:12:06;10.15;;;4.05;;
66437;SDS011;54537;47.972;11.662;2022-10-17T17:14:32;11.45;;;4.80;;